Jamestown, Texas
Current Conditions -  °F | °C
As of 5:55 PM on Friday 31 Oct 2014 (Local Time) from KJAS Reporting Station
Scattered Clouds Scattered Clouds  
Wind Chill: 20°   Ceiling: Unl
Heat Index: 20°   Visibility: 10mi
Dew Point:   Wind: 9mph
Humidity: 44%   Direction: 340°NNW
Pressure: 30.21"   Gusts: NA
Location:  31.0751°N, 93.8073°W
Report Text: KJAS 312255Z AUTO 34008KT 10SM SCT060 20/07 A3021 RMK AO2 T01970070
Loading
Personal Weather Stations






























Interactive Weather Map
Tropical Storm Tracking
New forecast layout! Learn more

10-Day Weather Forecast

Advertisements
Track Severe Weather on mobile